sensor_id;sensor_type;location;lat;lon;timestamp;temperature;humidity
69543;SHT31;56762;49.494;11.768;2023-05-07T00:00:01;11.43;85.71
69543;SHT31;56762;49.494;11.768;2023-05-07T00:02:29;11.40;85.77
69543;SHT31;56762;49.494;11.768;2023-05-07T00:04:57;11.43;84.82
69543;SHT31;56762;49.494;11.768;2023-05-07T00:07:25;11.45;84.00
69543;SHT31;56762;49.494;11.768;2023-05-07T00:09:53;11.48;84.15
69543;SHT31;56762;49.494;11.768;2023-05-07T00:12:22;11.49;84.42
69543;SHT31;56762;49.494;11.768;2023-05-07T00:14:50;11.48;84.94
69543;SHT31;56762;49.494;11.768;2023-05-07T00:17:18;11.46;84.48
69543;SHT31;56762;49.494;11.768;2023-05-07T00:19:46;11.51;83.08
69543;SHT31;56762;49.494;11.768;2023-05-07T00:22:14;11.49;83.82
69543;SHT31;56762;49.494;11.768;2023-05-07T00:24:42;11.48;84.18
69543;SHT31;56762;49.494;11.768;2023-05-07T00:27:09;11.42;84.39
69543;SHT31;56762;49.494;11.768;2023-05-07T00:29:39;11.39;83.86
69543;SHT31;56762;49.494;11.768;2023-05-07T00:32:06;11.38;84.11
69543;SHT31;56762;49.494;11.768;2023-05-07T00:34:35;11.34;84.77
69543;SHT31;56762;49.494;11.768;2023-05-07T00:37:03;11.35;84.39
69543;SHT31;56762;49.494;11.768;2023-05-07T00:39:32;11.39;84.00
69543;SHT31;56762;49.494;11.768;2023-05-07T00:41:59;11.38;84.50
69543;SHT31;56762;49.494;11.768;2023-05-07T00:44:27;11.39;84.06
69543;SHT31;56762;49.494;11.768;2023-05-07T00:46:57;11.36;84.12
69543;SHT31;56762;49.494;11.768;2023-05-07T00:49:29;11.36;84.70
69543;SHT31;56762;49.494;11.768;2023-05-07T00:52:03;11.34;84.35
69543;SHT31;56762;49.494;11.768;2023-05-07T00:54:31;11.35;84.50
69543;SHT31;56762;49.494;11.768;2023-05-07T00:56:59;11.28;84.33
69543;SHT31;56762;49.494;11.768;2023-05-07T00:59:30;11.25;84.61
69543;SHT31;56762;49.494;11.768;2023-05-07T01:01:59;11.19;84.68
69543;SHT31;56762;49.494;11.768;2023-05-07T01:04:27;11.14;84.86
69543;SHT31;56762;49.494;11.768;2023-05-07T01:06:56;11.11;84.95
69543;SHT31;56762;49.494;11.768;2023-05-07T01:09:26;11.07;85.16
69543;SHT31;56762;49.494;11.768;2023-05-07T01:11:56;11.04;85.46
69543;SHT31;56762;49.494;11.768;2023-05-07T01:14:25;11.00;85.49
69543;SHT31;56762;49.494;11.768;2023-05-07T01:16:53;10.98;85.25
69543;SHT31;56762;49.494;11.768;2023-05-07T01:19:22;10.94;85.72
69543;SHT31;56762;49.494;11.768;2023-05-07T01:22:23;10.94;85.24
69543;SHT31;56762;49.494;11.768;2023-05-07T01:24:53;10.94;85.05
69543;SHT31;56762;49.494;11.768;2023-05-07T01:27:22;10.91;85.08
69543;SHT31;56762;49.494;11.768;2023-05-07T01:29:50;10.84;85.35
69543;SHT31;56762;49.494;11.768;2023-05-07T01:32:19;10.81;85.90
69543;SHT31;56762;49.494;11.768;2023-05-07T01:34:49;10.78;85.97
69543;SHT31;56762;49.494;11.768;2023-05-07T01:37:17;10.80;86.17
69543;SHT31;56762;49.494;11.768;2023-05-07T01:39:47;10.78;86.17
69543;SHT31;56762;49.494;11.768;2023-05-07T01:42:15;10.76;86.16
69543;SHT31;56762;49.494;11.768;2023-05-07T01:44:43;10.76;85.91
69543;SHT31;56762;49.494;11.768;2023-05-07T01:47:12;10.77;85.50
69543;SHT31;56762;49.494;11.768;2023-05-07T01:49:41;10.78;85.34
69543;SHT31;56762;49.494;11.768;2023-05-07T01:52:10;10.85;85.03
69543;SHT31;56762;49.494;11.768;2023-05-07T01:54:38;10.87;84.92
69543;SHT31;56762;49.494;11.768;2023-05-07T01:57:07;10.97;84.52
69543;SHT31;56762;49.494;11.768;2023-05-07T01:59:35;10.98;84.53
69543;SHT31;56762;49.494;11.768;2023-05-07T02:02:03;11.01;84.36
69543;SHT31;56762;49.494;11.768;2023-05-07T02:04:31;11.04;84.15
69543;SHT31;56762;49.494;11.768;2023-05-07T02:06:58;11.01;84.38
69543;SHT31;56762;49.494;11.768;2023-05-07T02:09:26;10.96;84.69
69543;SHT31;56762;49.494;11.768;2023-05-07T02:11:54;10.94;84.45
69543;SHT31;56762;49.494;11.768;2023-05-07T02:14:23;10.96;84.52
69543;SHT31;56762;49.494;11.768;2023-05-07T02:16:52;10.90;84.48
69543;SHT31;56762;49.494;11.768;2023-05-07T02:19:20;10.85;85.01
69543;SHT31;56762;49.494;11.768;2023-05-07T02:21:48;10.83;84.82
69543;SHT31;56762;49.494;11.768;2023-05-07T02:24:16;10.80;84.85
69543;SHT31;56762;49.494;11.768;2023-05-07T02:26:43;10.76;84.88
69543;SHT31;56762;49.494;11.768;2023-05-07T02:29:11;10.77;85.34
69543;SHT31;56762;49.494;11.768;2023-05-07T02:31:41;10.74;85.04
69543;SHT31;56762;49.494;11.768;2023-05-07T02:34:08;10.71;85.50
69543;SHT31;56762;49.494;11.768;2023-05-07T02:36:36;10.73;85.69
69543;SHT31;56762;49.494;11.768;2023-05-07T02:39:04;10.76;85.52
69543;SHT31;56762;49.494;11.768;2023-05-07T02:41:32;10.74;85.26
69543;SHT31;56762;49.494;11.768;2023-05-07T02:44:00;10.77;85.69
69543;SHT31;56762;49.494;11.768;2023-05-07T02:46:28;10.74;85.88
69543;SHT31;56762;49.494;11.768;2023-05-07T02:48:57;10.74;85.82
69543;SHT31;56762;49.494;11.768;2023-05-07T02:51:26;10.74;86.03
69543;SHT31;56762;49.494;11.768;2023-05-07T02:53:53;10.74;86.00
69543;SHT31;56762;49.494;11.768;2023-05-07T02:56:21;10.76;86.29
69543;SHT31;56762;49.494;11.768;2023-05-07T02:58:49;10.74;85.72
69543;SHT31;56762;49.494;11.768;2023-05-07T03:01:17;10.77;85.77
69543;SHT31;56762;49.494;11.768;2023-05-07T03:03:45;10.78;85.86
69543;SHT31;56762;49.494;11.768;2023-05-07T03:06:14;10.78;86.27
69543;SHT31;56762;49.494;11.768;2023-05-07T03:08:42;10.80;86.41
69543;SHT31;56762;49.494;11.768;2023-05-07T03:11:10;10.76;86.60
69543;SHT31;56762;49.494;11.768;2023-05-07T03:13:38;10.73;86.39
69543;SHT31;56762;49.494;11.768;2023-05-07T03:16:06;10.70;86.60
69543;SHT31;56762;49.494;11.768;2023-05-07T03:18:34;10.67;86.36
69543;SHT31;56762;49.494;11.768;2023-05-07T03:21:02;10.67;86.47
69543;SHT31;56762;49.494;11.768;2023-05-07T03:23:31;10.63;86.52
69543;SHT31;56762;49.494;11.768;2023-05-07T03:25:59;10.64;86.63
69543;SHT31;56762;49.494;11.768;2023-05-07T03:28:27;10.61;86.25
69543;SHT31;56762;49.494;11.768;2023-05-07T03:30:55;10.61;86.08
69543;SHT31;56762;49.494;11.768;2023-05-07T03:33:23;10.59;86.38
69543;SHT31;56762;49.494;11.768;2023-05-07T03:35:51;10.55;86.31
69543;SHT31;56762;49.494;11.768;2023-05-07T03:38:19;10.53;86.33
69543;SHT31;56762;49.494;11.768;2023-05-07T03:40:48;10.52;86.55
69543;SHT31;56762;49.494;11.768;2023-05-07T03:43:16;10.49;86.48
69543;SHT31;56762;49.494;11.768;2023-05-07T03:45:44;10.52;86.44
69543;SHT31;56762;49.494;11.768;2023-05-07T03:48:12;10.49;86.63
69543;SHT31;56762;49.494;11.768;2023-05-07T03:50:39;10.46;87.24
69543;SHT31;56762;49.494;11.768;2023-05-07T03:53:07;10.46;86.71
69543;SHT31;56762;49.494;11.768;2023-05-07T03:55:35;10.46;86.80
69543;SHT31;56762;49.494;11.768;2023-05-07T03:58:04;10.53;86.08
69543;SHT31;56762;49.494;11.768;2023-05-07T04:00:32;10.57;86.20
69543;SHT31;56762;49.494;11.768;2023-05-07T04:03:04;10.59;86.15
69543;SHT31;56762;49.494;11.768;2023-05-07T04:05:32;10.60;85.66
69543;SHT31;56762;49.494;11.768;2023-05-07T04:08:00;10.59;86.07
69543;SHT31;56762;49.494;11.768;2023-05-07T04:10:29;10.60;85.59
69543;SHT31;56762;49.494;11.768;2023-05-07T04:12:57;10.61;85.78
69543;SHT31;56762;49.494;11.768;2023-05-07T04:15:28;10.66;86.35
69543;SHT31;56762;49.494;11.768;2023-05-07T04:17:56;10.68;85.83
69543;SHT31;56762;49.494;11.768;2023-05-07T04:20:24;10.74;85.92
69543;SHT31;56762;49.494;11.768;2023-05-07T04:22:52;10.76;85.73
69543;SHT31;56762;49.494;11.768;2023-05-07T04:25:19;10.78;85.59
69543;SHT31;56762;49.494;11.768;2023-05-07T04:27:47;10.85;86.20
69543;SHT31;56762;49.494;11.768;2023-05-07T04:30:17;10.91;86.32
69543;SHT31;56762;49.494;11.768;2023-05-07T04:32:46;11.00;85.68
69543;SHT31;56762;49.494;11.768;2023-05-07T04:35:15;11.10;84.97
69543;SHT31;56762;49.494;11.768;2023-05-07T04:37:46;11.17;84.27
69543;SHT31;56762;49.494;11.768;2023-05-07T04:40:14;11.18;84.48
69543;SHT31;56762;49.494;11.768;2023-05-07T04:42:42;11.19;83.97
69543;SHT31;56762;49.494;11.768;2023-05-07T04:45:10;11.27;83.69
69543;SHT31;56762;49.494;11.768;2023-05-07T04:47:38;11.34;83.42
69543;SHT31;56762;49.494;11.768;2023-05-07T04:50:09;11.45;83.11
69543;SHT31;56762;49.494;11.768;2023-05-07T04:52:37;11.58;83.01
69543;SHT31;56762;49.494;11.768;2023-05-07T04:55:05;11.72;83.30
69543;SHT31;56762;49.494;11.768;2023-05-07T04:57:34;11.82;82.57
69543;SHT31;56762;49.494;11.768;2023-05-07T05:00:02;11.90;82.42
69543;SHT31;56762;49.494;11.768;2023-05-07T05:02:30;11.96;82.50
69543;SHT31;56762;49.494;11.768;2023-05-07T05:04:58;12.00;82.22
69543;SHT31;56762;49.494;11.768;2023-05-07T05:07:27;12.10;81.07
69543;SHT31;56762;49.494;11.768;2023-05-07T05:09:55;12.33;80.88
69543;SHT31;56762;49.494;11.768;2023-05-07T05:12:24;12.51;80.77
69543;SHT31;56762;49.494;11.768;2023-05-07T05:14:52;12.65;79.82
69543;SHT31;56762;49.494;11.768;2023-05-07T05:17:20;12.82;79.38
69543;SHT31;56762;49.494;11.768;2023-05-07T05:19:47;12.95;78.12
69543;SHT31;56762;49.494;11.768;2023-05-07T05:22:16;13.09;77.64
69543;SHT31;56762;49.494;11.768;2023-05-07T05:24:45;13.26;76.65
69543;SHT31;56762;49.494;11.768;2023-05-07T05:27:13;13.30;76.48
69543;SHT31;56762;49.494;11.768;2023-05-07T05:29:41;13.44;76.06
69543;SHT31;56762;49.494;11.768;2023-05-07T05:32:09;13.46;76.07
69543;SHT31;56762;49.494;11.768;2023-05-07T05:34:37;13.63;75.57
69543;SHT31;56762;49.494;11.768;2023-05-07T05:37:05;13.73;75.18
69543;SHT31;56762;49.494;11.768;2023-05-07T05:39:32;13.70;75.19
69543;SHT31;56762;49.494;11.768;2023-05-07T05:42:03;13.67;76.25
69543;SHT31;56762;49.494;11.768;2023-05-07T05:44:31;13.71;75.60
69543;SHT31;56762;49.494;11.768;2023-05-07T05:46:58;13.75;75.37
69543;SHT31;56762;49.494;11.768;2023-05-07T05:49:26;13.68;75.60
69543;SHT31;56762;49.494;11.768;2023-05-07T05:51:54;13.75;75.46
69543;SHT31;56762;49.494;11.768;2023-05-07T05:54:22;13.73;75.38
69543;SHT31;56762;49.494;11.768;2023-05-07T05:56:50;13.84;75.15
69543;SHT31;56762;49.494;11.768;2023-05-07T05:59:19;13.97;75.03
69543;SHT31;56762;49.494;11.768;2023-05-07T06:01:47;13.95;74.22
69543;SHT31;56762;49.494;11.768;2023-05-07T06:04:15;13.89;73.78
69543;SHT31;56762;49.494;11.768;2023-05-07T06:06:43;14.05;74.61
69543;SHT31;56762;49.494;11.768;2023-05-07T06:09:11;14.04;74.12
69543;SHT31;56762;49.494;11.768;2023-05-07T06:11:39;14.00;74.27
69543;SHT31;56762;49.494;11.768;2023-05-07T06:14:08;14.11;74.33
69543;SHT31;56762;49.494;11.768;2023-05-07T06:16:37;14.17;74.06
69543;SHT31;56762;49.494;11.768;2023-05-07T06:19:05;14.25;74.07
69543;SHT31;56762;49.494;11.768;2023-05-07T06:21:33;14.32;73.78
69543;SHT31;56762;49.494;11.768;2023-05-07T06:24:01;14.38;73.48
69543;SHT31;56762;49.494;11.768;2023-05-07T06:26:29;14.45;73.27
69543;SHT31;56762;49.494;11.768;2023-05-07T06:28:56;14.39;73.13
69543;SHT31;56762;49.494;11.768;2023-05-07T06:31:29;14.43;73.58
69543;SHT31;56762;49.494;11.768;2023-05-07T06:33:59;14.49;74.00
69543;SHT31;56762;49.494;11.768;2023-05-07T06:36:29;14.43;72.09
69543;SHT31;56762;49.494;11.768;2023-05-07T06:38:57;14.39;72.02
69543;SHT31;56762;49.494;11.768;2023-05-07T06:41:24;14.32;73.12
69543;SHT31;56762;49.494;11.768;2023-05-07T06:43:52;14.38;72.60
69543;SHT31;56762;49.494;11.768;2023-05-07T06:46:20;14.42;72.05
69543;SHT31;56762;49.494;11.768;2023-05-07T06:48:48;14.40;72.25
69543;SHT31;56762;49.494;11.768;2023-05-07T06:51:17;14.48;72.05
69543;SHT31;56762;49.494;11.768;2023-05-07T06:53:45;14.43;72.70
69543;SHT31;56762;49.494;11.768;2023-05-07T06:56:13;14.49;72.60
69543;SHT31;56762;49.494;11.768;2023-05-07T06:58:41;14.49;72.30
69543;SHT31;56762;49.494;11.768;2023-05-07T07:01:09;14.53;72.12
69543;SHT31;56762;49.494;11.768;2023-05-07T07:03:36;14.60;71.56
69543;SHT31;56762;49.494;11.768;2023-05-07T07:06:04;14.62;72.07
69543;SHT31;56762;49.494;11.768;2023-05-07T07:08:33;14.69;71.62
69543;SHT31;56762;49.494;11.768;2023-05-07T07:11:02;14.73;71.32
69543;SHT31;56762;49.494;11.768;2023-05-07T07:13:29;14.79;71.44
69543;SHT31;56762;49.494;11.768;2023-05-07T07:15:57;14.81;71.92
69543;SHT31;56762;49.494;11.768;2023-05-07T07:18:25;14.93;71.48
69543;SHT31;56762;49.494;11.768;2023-05-07T07:20:53;14.96;71.35
69543;SHT31;56762;49.494;11.768;2023-05-07T07:23:21;14.97;71.67
69543;SHT31;56762;49.494;11.768;2023-05-07T07:25:50;15.07;71.22
69543;SHT31;56762;49.494;11.768;2023-05-07T07:28:20;15.21;70.66
69543;SHT31;56762;49.494;11.768;2023-05-07T07:30:48;15.27;70.57
69543;SHT31;56762;49.494;11.768;2023-05-07T07:33:16;15.37;70.30
69543;SHT31;56762;49.494;11.768;2023-05-07T07:35:44;15.38;70.17
69543;SHT31;56762;49.494;11.768;2023-05-07T07:38:12;15.37;69.50
69543;SHT31;56762;49.494;11.768;2023-05-07T07:40:40;15.42;70.84
69543;SHT31;56762;49.494;11.768;2023-05-07T07:43:11;15.54;69.83
69543;SHT31;56762;49.494;11.768;2023-05-07T07:45:39;15.59;69.72
69543;SHT31;56762;49.494;11.768;2023-05-07T07:48:07;15.65;70.25
69543;SHT31;56762;49.494;11.768;2023-05-07T07:50:35;15.75;69.75
69543;SHT31;56762;49.494;11.768;2023-05-07T07:53:11;15.85;70.14
69543;SHT31;56762;49.494;11.768;2023-05-07T07:55:39;16.00;69.57
69543;SHT31;56762;49.494;11.768;2023-05-07T07:58:07;16.09;69.89
69543;SHT31;56762;49.494;11.768;2023-05-07T08:00:36;16.19;69.09
69543;SHT31;56762;49.494;11.768;2023-05-07T08:03:04;16.29;67.55
69543;SHT31;56762;49.494;11.768;2023-05-07T08:05:33;16.43;68.55
69543;SHT31;56762;49.494;11.768;2023-05-07T08:08:01;16.48;67.70
69543;SHT31;56762;49.494;11.768;2023-05-07T08:10:29;16.47;66.97
69543;SHT31;56762;49.494;11.768;2023-05-07T08:13:01;16.57;67.91
69543;SHT31;56762;49.494;11.768;2023-05-07T08:15:30;16.61;68.22
69543;SHT31;56762;49.494;11.768;2023-05-07T08:18:01;16.58;68.40
69543;SHT31;56762;49.494;11.768;2023-05-07T08:20:29;16.56;67.19
69543;SHT31;56762;49.494;11.768;2023-05-07T08:23:00;16.48;67.66
69543;SHT31;56762;49.494;11.768;2023-05-07T08:25:28;16.39;67.62
69543;SHT31;56762;49.494;11.768;2023-05-07T08:27:56;16.40;68.12
69543;SHT31;56762;49.494;11.768;2023-05-07T08:30:23;16.37;68.89
69543;SHT31;56762;49.494;11.768;2023-05-07T08:32:51;16.44;69.48
69543;SHT31;56762;49.494;11.768;2023-05-07T08:35:20;16.46;68.36
69543;SHT31;56762;49.494;11.768;2023-05-07T08:37:49;16.63;67.09
69543;SHT31;56762;49.494;11.768;2023-05-07T08:40:17;16.57;67.96
69543;SHT31;56762;49.494;11.768;2023-05-07T08:42:48;16.64;67.59
69543;SHT31;56762;49.494;11.768;2023-05-07T08:45:18;16.63;68.64
69543;SHT31;56762;49.494;11.768;2023-05-07T08:47:51;16.68;68.03
69543;SHT31;56762;49.494;11.768;2023-05-07T08:50:21;16.72;67.72
69543;SHT31;56762;49.494;11.768;2023-05-07T08:52:49;16.84;68.17
69543;SHT31;56762;49.494;11.768;2023-05-07T08:55:17;16.92;66.99
69543;SHT31;56762;49.494;11.768;2023-05-07T08:57:46;17.01;67.00
69543;SHT31;56762;49.494;11.768;2023-05-07T09:00:15;17.07;65.98
69543;SHT31;56762;49.494;11.768;2023-05-07T09:02:43;17.05;66.90
69543;SHT31;56762;49.494;11.768;2023-05-07T09:05:12;17.09;67.55
69543;SHT31;56762;49.494;11.768;2023-05-07T09:07:41;17.25;66.16
69543;SHT31;56762;49.494;11.768;2023-05-07T09:10:09;17.25;66.66
69543;SHT31;56762;49.494;11.768;2023-05-07T09:12:37;17.26;65.73
69543;SHT31;56762;49.494;11.768;2023-05-07T09:15:07;17.26;66.05
69543;SHT31;56762;49.494;11.768;2023-05-07T09:17:35;17.23;66.84
69543;SHT31;56762;49.494;11.768;2023-05-07T09:20:03;17.29;66.36
69543;SHT31;56762;49.494;11.768;2023-05-07T09:22:37;17.28;67.29
69543;SHT31;56762;49.494;11.768;2023-05-07T09:25:07;17.30;66.43
69543;SHT31;56762;49.494;11.768;2023-05-07T09:27:36;17.35;66.27
69543;SHT31;56762;49.494;11.768;2023-05-07T09:30:04;17.40;65.99
69543;SHT31;56762;49.494;11.768;2023-05-07T09:32:35;17.47;65.93
69543;SHT31;56762;49.494;11.768;2023-05-07T09:35:05;17.63;65.27
69543;SHT31;56762;49.494;11.768;2023-05-07T09:37:34;17.67;66.13
69543;SHT31;56762;49.494;11.768;2023-05-07T09:40:01;17.67;66.16
69543;SHT31;56762;49.494;11.768;2023-05-07T09:42:31;17.63;65.39
69543;SHT31;56762;49.494;11.768;2023-05-07T09:44:59;17.62;66.05
69543;SHT31;56762;49.494;11.768;2023-05-07T09:47:30;17.60;66.45
69543;SHT31;56762;49.494;11.768;2023-05-07T09:50:05;17.66;66.99
69543;SHT31;56762;49.494;11.768;2023-05-07T09:52:33;17.63;66.67
69543;SHT31;56762;49.494;11.768;2023-05-07T09:55:03;17.57;67.24
69543;SHT31;56762;49.494;11.768;2023-05-07T09:57:34;17.57;65.89
69543;SHT31;56762;49.494;11.768;2023-05-07T10:00:04;17.59;66.43
69543;SHT31;56762;49.494;11.768;2023-05-07T10:02:35;17.53;65.97
69543;SHT31;56762;49.494;11.768;2023-05-07T10:05:04;17.54;66.08
69543;SHT31;56762;49.494;11.768;2023-05-07T10:07:32;17.56;66.38
69543;SHT31;56762;49.494;11.768;2023-05-07T10:10:01;17.53;67.09
69543;SHT31;56762;49.494;11.768;2023-05-07T10:12:30;17.56;67.52
69543;SHT31;56762;49.494;11.768;2023-05-07T10:15:06;17.60;66.82
69543;SHT31;56762;49.494;11.768;2023-05-07T10:17:35;17.62;65.74
69543;SHT31;56762;49.494;11.768;2023-05-07T10:20:04;17.69;66.71
69543;SHT31;56762;49.494;11.768;2023-05-07T10:22:38;17.77;65.84
69543;SHT31;56762;49.494;11.768;2023-05-07T10:25:09;17.80;66.34
69543;SHT31;56762;49.494;11.768;2023-05-07T10:27:40;17.83;65.37
69543;SHT31;56762;49.494;11.768;2023-05-07T10:30:17;17.77;65.85
69543;SHT31;56762;49.494;11.768;2023-05-07T10:32:49;17.81;66.28
69543;SHT31;56762;49.494;11.768;2023-05-07T10:35:20;17.91;65.60
69543;SHT31;56762;49.494;11.768;2023-05-07T10:37:50;17.83;65.52
69543;SHT31;56762;49.494;11.768;2023-05-07T10:40:17;17.81;65.51
69543;SHT31;56762;49.494;11.768;2023-05-07T10:42:53;17.97;64.39
69543;SHT31;56762;49.494;11.768;2023-05-07T10:45:24;18.00;64.73
69543;SHT31;56762;49.494;11.768;2023-05-07T10:48:06;18.10;64.87
69543;SHT31;56762;49.494;11.768;2023-05-07T10:51:20;18.17;65.66
69543;SHT31;56762;49.494;11.768;2023-05-07T10:54:18;18.29;62.85
69543;SHT31;56762;49.494;11.768;2023-05-07T10:56:46;18.34;63.23
69543;SHT31;56762;49.494;11.768;2023-05-07T10:59:34;18.44;64.39
69543;SHT31;56762;49.494;11.768;2023-05-07T11:02:08;18.55;62.78
69543;SHT31;56762;49.494;11.768;2023-05-07T11:04:38;18.60;63.01
69543;SHT31;56762;49.494;11.768;2023-05-07T11:07:28;18.59;63.66
69543;SHT31;56762;49.494;11.768;2023-05-07T11:10:01;18.53;61.88
69543;SHT31;56762;49.494;11.768;2023-05-07T11:13:01;18.45;62.93
69543;SHT31;56762;49.494;11.768;2023-05-07T11:15:41;18.41;63.86
69543;SHT31;56762;49.494;11.768;2023-05-07T11:18:13;18.31;63.52
69543;SHT31;56762;49.494;11.768;2023-05-07T11:20:55;18.32;64.24
69543;SHT31;56762;49.494;11.768;2023-05-07T11:26:31;18.24;62.59
69543;SHT31;56762;49.494;11.768;2023-05-07T11:29:10;18.17;63.23
69543;SHT31;56762;49.494;11.768;2023-05-07T11:31:38;18.12;62.52
69543;SHT31;56762;49.494;11.768;2023-05-07T11:34:07;18.08;61.87
69543;SHT31;56762;49.494;11.768;2023-05-07T11:36:41;18.12;61.78
69543;SHT31;56762;49.494;11.768;2023-05-07T11:39:26;18.28;61.38
69543;SHT31;56762;49.494;11.768;2023-05-07T11:41:56;18.34;62.59
69543;SHT31;56762;49.494;11.768;2023-05-07T11:44:23;18.32;61.45
69543;SHT31;56762;49.494;11.768;2023-05-07T11:46:51;18.24;62.22
69543;SHT31;56762;49.494;11.768;2023-05-07T11:49:19;18.35;61.90
69543;SHT31;56762;49.494;11.768;2023-05-07T11:52:10;18.29;61.53
69543;SHT31;56762;49.494;11.768;2023-05-07T11:54:38;18.24;60.78
69543;SHT31;56762;49.494;11.768;2023-05-07T11:57:14;18.31;61.22
69543;SHT31;56762;49.494;11.768;2023-05-07T11:59:42;18.32;61.00
69543;SHT31;56762;49.494;11.768;2023-05-07T12:02:14;18.24;62.09
69543;SHT31;56762;49.494;11.768;2023-05-07T12:04:43;18.34;62.59
69543;SHT31;56762;49.494;11.768;2023-05-07T12:07:11;18.39;62.62
69543;SHT31;56762;49.494;11.768;2023-05-07T12:09:40;18.51;62.45
69543;SHT31;56762;49.494;11.768;2023-05-07T12:12:14;18.73;61.42
69543;SHT31;56762;49.494;11.768;2023-05-07T12:14:45;18.86;60.39
69543;SHT31;56762;49.494;11.768;2023-05-07T12:17:14;18.70;60.36
69543;SHT31;56762;49.494;11.768;2023-05-07T12:19:43;18.65;60.82
69543;SHT31;56762;49.494;11.768;2023-05-07T12:22:12;18.62;61.31
69543;SHT31;56762;49.494;11.768;2023-05-07T12:24:47;18.58;62.13
69543;SHT31;56762;49.494;11.768;2023-05-07T12:27:17;18.59;62.96
69543;SHT31;56762;49.494;11.768;2023-05-07T12:29:45;18.60;62.35
69543;SHT31;56762;49.494;11.768;2023-05-07T12:32:13;18.62;63.03
69543;SHT31;56762;49.494;11.768;2023-05-07T12:34:42;18.63;62.88
69543;SHT31;56762;49.494;11.768;2023-05-07T12:37:11;18.69;60.85
69543;SHT31;56762;49.494;11.768;2023-05-07T12:39:44;18.76;60.92
69543;SHT31;56762;49.494;11.768;2023-05-07T12:42:15;18.75;61.07
69543;SHT31;56762;49.494;11.768;2023-05-07T12:44:45;18.76;60.24
69543;SHT31;56762;49.494;11.768;2023-05-07T12:47:14;18.72;59.60
69543;SHT31;56762;49.494;11.768;2023-05-07T12:49:43;18.72;59.96
69543;SHT31;56762;49.494;11.768;2023-05-07T12:52:12;18.62;60.16
69543;SHT31;56762;49.494;11.768;2023-05-07T12:54:40;18.58;60.90
69543;SHT31;56762;49.494;11.768;2023-05-07T12:57:09;18.62;60.19
69543;SHT31;56762;49.494;11.768;2023-05-07T12:59:38;18.62;59.65
69543;SHT31;56762;49.494;11.768;2023-05-07T13:02:08;18.59;61.08
69543;SHT31;56762;49.494;11.768;2023-05-07T13:04:36;18.60;60.55
69543;SHT31;56762;49.494;11.768;2023-05-07T13:07:04;18.58;61.66
69543;SHT31;56762;49.494;11.768;2023-05-07T13:09:32;18.53;60.15
69543;SHT31;56762;49.494;11.768;2023-05-07T13:12:00;18.75;59.10
69543;SHT31;56762;49.494;11.768;2023-05-07T13:14:28;18.89;59.36
69543;SHT31;56762;49.494;11.768;2023-05-07T13:16:56;18.75;58.73
69543;SHT31;56762;49.494;11.768;2023-05-07T13:19:25;18.82;58.33
69543;SHT31;56762;49.494;11.768;2023-05-07T13:21:55;18.85;58.23
69543;SHT31;56762;49.494;11.768;2023-05-07T13:24:26;18.76;57.87
69543;SHT31;56762;49.494;11.768;2023-05-07T13:26:54;18.82;58.05
69543;SHT31;56762;49.494;11.768;2023-05-07T13:29:22;18.73;58.67
69543;SHT31;56762;49.494;11.768;2023-05-07T13:31:55;18.83;57.73
69543;SHT31;56762;49.494;11.768;2023-05-07T13:34:22;18.88;57.78
69543;SHT31;56762;49.494;11.768;2023-05-07T13:36:51;18.73;57.16
69543;SHT31;56762;49.494;11.768;2023-05-07T13:39:19;18.69;58.60
69543;SHT31;56762;49.494;11.768;2023-05-07T13:41:47;18.70;57.28
69543;SHT31;56762;49.494;11.768;2023-05-07T13:44:15;18.83;57.29
69543;SHT31;56762;49.494;11.768;2023-05-07T13:46:42;18.73;57.47
69543;SHT31;56762;49.494;11.768;2023-05-07T13:49:10;18.83;57.79
69543;SHT31;56762;49.494;11.768;2023-05-07T13:51:39;18.96;57.12
69543;SHT31;56762;49.494;11.768;2023-05-07T13:54:08;18.95;56.65
69543;SHT31;56762;49.494;11.768;2023-05-07T13:56:36;19.10;56.95
69543;SHT31;56762;49.494;11.768;2023-05-07T13:59:03;18.99;56.84
69543;SHT31;56762;49.494;11.768;2023-05-07T14:01:31;18.95;56.66
69543;SHT31;56762;49.494;11.768;2023-05-07T14:03:59;19.02;56.43
69543;SHT31;56762;49.494;11.768;2023-05-07T14:06:27;18.86;55.90
69543;SHT31;56762;49.494;11.768;2023-05-07T14:08:54;18.79;56.11
69543;SHT31;56762;49.494;11.768;2023-05-07T14:11:25;18.83;56.19
69543;SHT31;56762;49.494;11.768;2023-05-07T14:13:53;18.90;55.79
69543;SHT31;56762;49.494;11.768;2023-05-07T14:16:23;18.93;55.26
69543;SHT31;56762;49.494;11.768;2023-05-07T14:18:51;19.03;54.83
69543;SHT31;56762;49.494;11.768;2023-05-07T14:21:23;18.95;54.72
69543;SHT31;56762;49.494;11.768;2023-05-07T14:23:51;18.95;54.59
69543;SHT31;56762;49.494;11.768;2023-05-07T14:26:20;18.86;55.45
69543;SHT31;56762;49.494;11.768;2023-05-07T14:28:50;18.95;55.13
69543;SHT31;56762;49.494;11.768;2023-05-07T14:31:18;18.95;54.62
69543;SHT31;56762;49.494;11.768;2023-05-07T14:33:47;18.88;54.57
69543;SHT31;56762;49.494;11.768;2023-05-07T14:36:16;18.96;55.45
69543;SHT31;56762;49.494;11.768;2023-05-07T14:38:44;18.88;54.22
69543;SHT31;56762;49.494;11.768;2023-05-07T14:41:12;18.83;53.90
69543;SHT31;56762;49.494;11.768;2023-05-07T14:43:39;18.85;56.32
69543;SHT31;56762;49.494;11.768;2023-05-07T14:46:08;18.88;53.77
69543;SHT31;56762;49.494;11.768;2023-05-07T14:48:37;18.82;53.97
69543;SHT31;56762;49.494;11.768;2023-05-07T14:51:04;18.92;53.66
69543;SHT31;56762;49.494;11.768;2023-05-07T14:53:33;18.89;54.53
69543;SHT31;56762;49.494;11.768;2023-05-07T14:56:00;18.99;53.22
69543;SHT31;56762;49.494;11.768;2023-05-07T14:58:28;18.99;53.70
69543;SHT31;56762;49.494;11.768;2023-05-07T15:00:56;19.09;52.23
69543;SHT31;56762;49.494;11.768;2023-05-07T15:03:25;18.99;51.30
69543;SHT31;56762;49.494;11.768;2023-05-07T15:05:53;19.00;52.63
69543;SHT31;56762;49.494;11.768;2023-05-07T15:08:21;19.09;50.57
69543;SHT31;56762;49.494;11.768;2023-05-07T15:10:48;19.07;51.02
69543;SHT31;56762;49.494;11.768;2023-05-07T15:13:16;19.06;51.06
69543;SHT31;56762;49.494;11.768;2023-05-07T15:15:44;19.09;51.26
69543;SHT31;56762;49.494;11.768;2023-05-07T15:18:13;19.21;51.37
69543;SHT31;56762;49.494;11.768;2023-05-07T15:20:42;19.23;51.45
69543;SHT31;56762;49.494;11.768;2023-05-07T15:23:10;19.17;51.28
69543;SHT31;56762;49.494;11.768;2023-05-07T15:25:40;19.09;52.70
69543;SHT31;56762;49.494;11.768;2023-05-07T15:28:08;18.96;52.69
69543;SHT31;56762;49.494;11.768;2023-05-07T15:30:36;18.86;54.00